Time;durP1;ratioP1;P1;durP2;ratioP2;P2;SDS_P1;SDS_P2;PMS_P1;PMS_P2;Temp;Humidity;BMP_temperature;BMP_pressure;BME280_temperature;BME280_humidity;BME280_pressure;Samples;Min_cycle;Max_cycle;Signal;HPM_P1;HPM_P2
2022/08/19 07:33:22;;;;;;;23.27;14.35;;;;;;;19.90;91.85;98628.88;5130385;27;20112;-81
2022/08/19 07:35:49;;;;;;;20.52;14.60;;;;;;;19.98;91.03;98628.41;5110351;28;20059;-78
2022/08/19 07:38:16;;;;;;;23.85;15.63;;;;;;;20.14;90.07;98632.16;5107475;28;20055;-81
2022/08/19 07:40:45;;;;;;;21.80;13.93;;;;;;;20.30;88.36;98624.03;5108256;28;20055;-80
2022/08/19 07:43:12;;;;;;;22.35;14.70;;;;;;;20.31;88.09;98628.47;5121190;27;20058;-80
2022/08/19 07:45:39;;;;;;;21.77;13.85;;;;;;;20.27;88.10;98627.31;5121077;27;20383;-80
2022/08/19 07:48:05;;;;;;;19.77;13.57;;;;;;;20.31;88.18;98632.06;5128674;28;20039;-79
2022/08/19 07:50:33;;;;;;;20.85;14.68;;;;;;;20.32;87.21;98628.22;5125988;28;20383;-80
2022/08/19 07:52:59;;;;;;;22.25;14.48;;;;;;;20.39;87.57;98627.97;5127783;27;20043;-80
2022/08/19 07:55:26;;;;;;;21.40;14.23;;;;;;;20.34;88.06;98634.28;5128649;28;20627;-80
2022/08/19 07:57:53;;;;;;;22.50;13.48;;;;;;;20.43;88.06;98637.41;5125851;27;20047;-81
2022/08/19 08:00:20;;;;;;;17.17;12.85;;;;;;;20.51;86.84;98633.31;5128095;27;20505;-80
2022/08/19 08:02:46;;;;;;;17.77;13.05;;;;;;;20.36;87.61;98631.25;5123442;27;20046;-80
2022/08/19 08:10:54;;;;;;;19.85;13.38;;;;;;;20.48;86.86;98609.84;5064583;28;20063;-80
2022/08/19 08:13:20;;;;;;;21.98;13.52;;;;;;;20.68;86.08;98628.53;5111919;27;20410;-80
2022/08/19 08:15:47;;;;;;;17.95;12.57;;;;;;;20.66;85.90;98640.94;5132213;27;20281;-80
2022/08/19 08:18:13;;;;;;;17.50;13.52;;;;;;;20.71;86.38;98638.22;5124070;27;20051;-80
2022/08/19 08:20:40;;;;;;;20.55;13.32;;;;;;;20.84;86.02;98639.69;5127866;28;20048;-81
2022/08/19 08:23:24;;;;;;;17.52;13.35;;;;;;;21.01;84.39;98650.59;5127405;27;20108;-81
2022/08/19 08:25:52;;;;;;;18.85;13.07;;;;;;;21.00;84.63;98641.47;5128087;27;20131;-80
2022/08/19 08:28:19;;;;;;;19.75;13.25;;;;;;;21.03;83.86;98649.22;5128159;27;20074;-81
2022/08/19 08:30:47;;;;;;;16.60;12.48;;;;;;;21.06;83.47;98638.72;5119195;27;20447;-80
2022/08/19 08:33:15;;;;;;;21.20;13.00;;;;;;;21.22;83.02;98640.50;5125043;27;20043;-81
2022/08/19 08:35:42;;;;;;;20.98;12.88;;;;;;;21.27;82.72;98648.81;5126760;27;20047;-81
2022/08/19 08:38:10;;;;;;;17.75;12.90;;;;;;;21.26;82.43;98638.88;5127733;27;20048;-81
2022/08/19 08:40:43;;;;;;;16.48;11.43;;;;;;;21.35;82.73;98641.97;5127789;27;20048;-81
2022/08/19 08:43:21;;;;;;;20.15;12.80;;;;;;;21.43;82.46;98646.13;5115315;27;20054;-81
2022/08/19 08:45:53;;;;;;;17.98;12.05;;;;;;;21.41;82.59;98640.88;5105790;28;20050;-81
2022/08/19 08:48:24;;;;;;;16.92;12.35;;;;;;;21.38;82.62;98644.19;5114147;28;20413;-81
2022/08/19 08:50:53;;;;;;;18.90;13.38;;;;;;;21.35;82.19;98651.06;5113773;28;20048;-81
2022/08/19 08:53:22;;;;;;;23.40;12.95;;;;;;;21.35;82.39;98645.53;5108414;28;20078;-81
2022/08/19 08:55:49;;;;;;;23.48;12.00;;;;;;;21.29;83.17;98631.97;5113633;28;20492;-81
2022/08/19 08:58:22;;;;;;;16.42;11.50;;;;;;;21.25;82.66;98623.38;5096992;28;20040;-81
2022/08/19 09:00:49;;;;;;;23.30;12.95;;;;;;;21.36;82.91;98627.00;5099747;28;20047;-80
2022/08/19 09:03:19;;;;;;;17.90;11.77;;;;;;;21.40;82.45;98617.09;5112845;28;20097;-81
2022/08/19 09:05:56;;;;;;;19.88;12.15;;;;;;;21.60;81.86;98627.44;5113779;28;20122;-81
2022/08/19 09:08:41;;;;;;;18.58;11.75;;;;;;;21.83;80.66;98625.28;5113863;28;20056;-81
2022/08/19 09:11:12;;;;;;;17.60;12.13;;;;;;;22.06;79.37;98624.81;5107816;28;20055;-81
2022/08/19 09:13:49;;;;;;;16.15;10.95;;;;;;;22.28;77.81;98632.03;5108520;28;20047;-80
2022/08/19 09:16:20;;;;;;;18.48;11.95;;;;;;;22.32;77.33;98621.28;5108740;28;20482;-81
2022/08/19 09:18:52;;;;;;;15.13;10.70;;;;;;;22.24;78.41;98628.16;5113587;28;20134;-81
2022/08/19 09:21:20;;;;;;;15.10;10.77;;;;;;;22.23;77.61;98624.56;5113379;28;20055;-80
2022/08/19 09:23:47;;;;;;;14.15;10.43;;;;;;;22.32;78.53;98630.41;5112723;28;20065;-81
2022/08/19 09:26:16;;;;;;;14.00;9.82;;;;;;;22.34;78.33;98633.75;5104776;28;20441;-81
2022/08/19 09:28:44;;;;;;;15.20;9.95;;;;;;;22.27;78.52;98647.81;5110328;28;20051;-81
2022/08/19 09:31:11;;;;;;;18.40;10.98;;;;;;;22.25;78.92;98630.66;5098441;28;20506;-81
2022/08/19 09:33:38;;;;;;;17.60;10.23;;;;;;;22.12;79.54;98638.69;5112212;28;20096;-80
2022/08/19 09:36:06;;;;;;;17.25;11.50;;;;;;;22.19;79.10;98648.38;5112788;28;20040;-81
2022/08/19 09:38:33;;;;;;;14.85;9.88;;;;;;;22.02;80.32;98645.81;5109823;28;20535;-80
2022/08/19 09:41:05;;;;;;;16.33;9.35;;;;;;;21.99;81.41;98640.00;5090977;28;20054;-81
2022/08/19 09:43:33;;;;;;;19.73;9.95;;;;;;;22.13;80.85;98641.16;5097115;28;20483;-80
2022/08/19 09:46:00;;;;;;;14.32;10.02;;;;;;;22.01;80.14;98646.09;5113031;28;20093;-80
2022/08/19 09:48:26;;;;;;;13.27;9.80;;;;;;;21.99;81.31;98645.56;5112798;28;20493;-79
2022/08/19 09:50:53;;;;;;;12.98;9.15;;;;;;;22.15;80.84;98647.25;5112792;28;20055;-80
2022/08/19 09:53:22;;;;;;;19.85;9.77;;;;;;;22.08;81.06;98646.69;5111765;28;20051;-80
2022/08/19 09:55:48;;;;;;;15.50;8.93;;;;;;;22.17;80.27;98645.03;5111272;28;20224;-80
2022/08/19 09:58:16;;;;;;;16.25;10.00;;;;;;;22.09;81.11;98638.09;5099662;28;20078;-79
2022/08/19 10:00:43;;;;;;;12.40;9.38;;;;;;;22.13;80.86;98651.38;5111835;28;20048;-80
2022/08/19 10:03:11;;;;;;;17.75;8.90;;;;;;;22.09;80.84;98651.13;5111690;28;20051;-79
2022/08/19 10:05:49;;;;;;;14.50;8.55;;;;;;;22.05;80.81;98647.22;5112520;28;20051;-79
2022/08/19 10:08:18;;;;;;;16.13;9.02;;;;;;;22.05;81.77;98644.47;5112486;27;20100;-80
2022/08/19 10:10:45;;;;;;;11.65;9.00;;;;;;;22.01;82.40;98649.72;5104357;28;20040;-80
2022/08/19 10:13:12;;;;;;;12.45;8.95;;;;;;;22.00;81.96;98648.03;5106089;28;20074;-79
2022/08/19 10:15:40;;;;;;;14.63;8.80;;;;;;;22.08;81.87;98649.44;5103319;28;20051;-79
2022/08/19 10:18:07;;;;;;;14.60;9.27;;;;;;;22.01;82.33;98654.41;5111751;28;20402;-79
2022/08/19 10:20:35;;;;;;;13.68;9.68;;;;;;;22.06;81.49;98651.66;5112193;28;20047;-79
2022/08/19 10:23:01;;;;;;;17.52;10.05;;;;;;;22.07;81.38;98642.22;5111127;28;20047;-80
2022/08/19 10:25:28;;;;;;;14.98;8.73;;;;;;;22.19;80.86;98639.22;5097879;28;20077;-80
2022/08/19 10:27:54;;;;;;;13.25;9.02;;;;;;;22.46;80.09;98627.94;5106791;28;20405;-80
2022/08/19 10:30:21;;;;;;;16.27;8.27;;;;;;;22.73;78.27;98616.59;5111947;28;20051;-79
2022/08/19 10:32:49;;;;;;;13.10;8.15;;;;;;;23.02;76.72;98623.47;5108909;28;20043;-80
2022/08/19 10:35:17;;;;;;;11.82;7.88;;;;;;;23.24;75.59;98626.78;5111620;28;20055;-80
2022/08/19 10:37:43;;;;;;;14.27;8.00;;;;;;;23.28;75.55;98627.88;5110414;28;20058;-80
2022/08/19 10:40:11;;;;;;;13.63;7.28;;;;;;;23.47;73.84;98627.25;5106077;28;20543;-80
2022/08/19 10:42:38;;;;;;;12.60;7.18;;;;;;;23.32;74.32;98626.22;5109357;28;20051;-80
2022/08/19 10:45:06;;;;;;;14.43;7.30;;;;;;;23.33;73.39;98618.72;5111726;28;20053;-80
2022/08/19 10:47:33;;;;;;;9.98;6.80;;;;;;;23.46;74.22;98618.09;5111714;28;20051;-80
2022/08/19 10:52:48;;;;;;;15.60;6.97;;;;;;;23.50;72.36;98626.69;5103389;28;20096;-80
2022/08/19 10:57:59;;;;;;;10.57;6.95;;;;;;;23.54;70.97;98625.00;5104904;28;20130;-80
2022/08/19 11:00:26;;;;;;;8.48;5.93;;;;;;;23.37;68.28;98611.50;5112014;28;20048;-80
2022/08/19 11:02:52;;;;;;;8.18;6.07;;;;;;;23.35;68.39;98619.28;5105025;28;20110;-80
2022/08/19 11:05:22;;;;;;;8.40;6.13;;;;;;;23.27;69.84;98620.66;5092801;28;20073;-81
2022/08/19 11:07:50;;;;;;;14.73;5.93;;;;;;;23.31;69.60;98615.41;5105745;28;20502;-81
2022/08/19 11:10:18;;;;;;;12.13;5.50;;;;;;;23.46;66.73;98618.09;5097930;28;20047;-80
2022/08/19 11:12:46;;;;;;;10.07;5.40;;;;;;;23.61;66.67;98624.72;5097403;28;20035;-81
2022/08/19 11:15:13;;;;;;;9.68;5.07;;;;;;;23.76;65.21;98612.72;5108988;28;20075;-80
2022/08/19 11:17:43;;;;;;;7.72;4.95;;;;;;;23.73;63.37;98599.44;5109044;28;20043;-79
2022/08/19 11:20:11;;;;;;;7.22;4.57;;;;;;;23.86;63.49;98615.47;5100975;28;20047;-80
2022/08/19 11:22:40;;;;;;;6.90;4.70;;;;;;;24.21;62.26;98621.94;5100906;28;20122;-81
2022/08/19 11:25:09;;;;;;;4.23;3.80;;;;;;;24.27;61.83;98617.16;5107737;28;20051;-81
2022/08/19 11:27:39;;;;;;;9.77;4.82;;;;;;;24.52;61.28;98605.88;5105762;28;20047;-81
2022/08/19 11:30:07;;;;;;;9.50;5.88;;;;;;;24.58;60.59;98612.22;5096564;28;20040;-81
2022/08/19 11:32:34;;;;;;;8.65;5.03;;;;;;;24.62;60.73;98595.81;5098078;28;20047;-81
2022/08/19 11:35:00;;;;;;;6.07;4.78;;;;;;;24.77;58.59;98598.44;5098092;28;20064;-81
2022/08/19 11:37:27;;;;;;;7.25;4.07;;;;;;;24.69;58.86;98599.06;5106187;28;20046;-81
2022/08/19 11:39:57;;;;;;;13.48;4.15;;;;;;;24.64;58.70;98599.13;5096579;28;20100;-81
2022/08/19 11:45:10;;;;;;;6.43;4.07;;;;;;;24.45;57.95;98615.63;5099190;28;20193;-80
2022/08/19 11:47:38;;;;;;;4.75;3.65;;;;;;;24.66;57.91;98619.09;5104698;28;20136;-82
2022/08/19 11:50:06;;;;;;;4.40;3.45;;;;;;;24.93;57.00;98607.47;5106065;28;20556;-81
2022/08/19 11:52:32;;;;;;;7.68;3.90;;;;;;;24.82;56.79;98611.47;5098801;28;20051;-81
2022/08/19 11:55:01;;;;;;;5.57;3.92;;;;;;;24.64;56.72;98597.16;5103067;28;20048;-81
2022/08/19 11:57:27;;;;;;;5.95;4.10;;;;;;;24.65;56.82;98611.91;5107919;28;20101;-81
2022/08/19 11:59:53;;;;;;;7.53;3.75;;;;;;;24.68;57.24;98605.75;5100128;28;20059;-81
2022/08/19 12:02:21;;;;;;;6.50;3.70;;;;;;;24.63;56.15;98609.41;5103254;28;20117;-81
2022/08/19 12:04:48;;;;;;;10.70;4.20;;;;;;;24.63;56.16;98620.53;5101675;28;20040;-81
2022/08/19 12:07:14;;;;;;;10.35;4.03;;;;;;;24.48;56.33;98615.91;5105195;28;20135;-81
2022/08/19 12:09:41;;;;;;;4.82;3.60;;;;;;;24.38;57.06;98618.75;5095216;28;20054;-80
2022/08/19 12:12:09;;;;;;;5.32;3.45;;;;;;;24.28;57.38;98605.75;5103688;28;20112;-81
2022/08/19 12:14:36;;;;;;;5.68;3.80;;;;;;;24.37;57.22;98614.31;5107284;28;20094;-81
2022/08/19 12:17:04;;;;;;;6.32;3.72;;;;;;;24.52;57.03;98621.69;5103110;28;20056;-81
2022/08/19 12:19:31;;;;;;;3.92;3.50;;;;;;;24.49;56.79;98617.53;5100189;28;20105;-80
2022/08/19 12:22:01;;;;;;;6.32;3.58;;;;;;;24.52;56.89;98599.47;5101492;28;20040;-81
2022/08/19 12:24:28;;;;;;;5.03;3.50;;;;;;;24.83;56.36;98604.78;5109978;28;20055;-82
2022/08/19 12:26:55;;;;;;;6.88;3.63;;;;;;;25.02;55.38;98600.16;5115388;28;20455;-82
2022/08/19 12:29:23;;;;;;;6.13;3.85;;;;;;;24.88;55.22;98596.38;5104400;28;20044;-83
2022/08/19 12:31:50;;;;;;;4.95;3.67;;;;;;;24.95;55.90;98596.06;5095560;28;20044;-82
2022/08/19 12:34:16;;;;;;;5.55;3.50;;;;;;;24.94;55.81;98605.53;5101987;28;20044;-83
2022/08/19 12:36:43;;;;;;;4.47;3.38;;;;;;;24.85;55.73;98606.13;5110215;28;20501;-82
2022/08/19 12:39:09;;;;;;;5.40;3.10;;;;;;;24.84;56.16;98612.84;5111858;28;20055;-81
2022/08/19 12:41:36;;;;;;;5.15;3.72;;;;;;;24.90;56.11;98599.69;5112214;28;20047;-81
2022/08/19 12:44:03;;;;;;;7.13;3.70;;;;;;;24.76;56.43;98604.31;5110034;28;20363;-81
2022/08/19 12:46:31;;;;;;;5.25;3.40;;;;;;;24.76;56.74;98607.91;5102499;28;20048;-81
2022/08/19 12:48:59;;;;;;;5.22;3.15;;;;;;;24.96;55.50;98606.91;5110604;28;20044;-81
2022/08/19 12:51:26;;;;;;;5.28;3.45;;;;;;;24.92;55.44;98597.47;5109801;28;20112;-81
2022/08/19 12:53:53;;;;;;;5.60;3.40;;;;;;;25.09;55.34;98606.16;5105370;28;20043;-81
2022/08/19 12:56:19;;;;;;;9.68;3.60;;;;;;;24.76;55.56;98599.56;5113851;28;20051;-81
2022/08/19 12:58:46;;;;;;;12.18;3.45;;;;;;;24.96;54.84;98603.25;5108379;28;20062;-81
2022/08/19 13:01:15;;;;;;;3.92;3.47;;;;;;;25.17;54.96;98617.78;5094969;28;20052;-81
2022/08/19 13:03:45;;;;;;;8.23;4.00;;;;;;;25.38;53.80;98613.69;5103205;28;21469;-81
2022/08/19 13:06:12;;;;;;;4.15;3.30;;;;;;;25.40;54.60;98608.66;5100760;28;20048;-81
2022/08/19 13:08:39;;;;;;;7.32;3.80;;;;;;;25.52;55.67;98605.47;5104507;28;20499;-81
2022/08/19 13:11:12;;;;;;;4.05;3.35;;;;;;;25.52;56.13;98604.59;5105819;28;20050;-82
2022/08/19 13:13:41;;;;;;;7.82;3.72;;;;;;;25.44;56.18;98612.50;5109836;28;20051;-82
2022/08/19 13:16:09;;;;;;;4.82;3.88;;;;;;;25.36;55.86;98606.75;5114748;27;20112;-81
2022/08/19 13:18:36;;;;;;;5.28;3.75;;;;;;;25.20;56.02;98609.69;5110591;28;20517;-81
2022/08/19 13:21:05;;;;;;;7.07;3.35;;;;;;;25.22;55.25;98621.34;5104257;28;20457;-82
2022/08/19 13:23:32;;;;;;;;;;;;;;;24.95;56.12;98621.09;5112530;28;20561;-82
2022/08/19 13:25:59;;;;;;;6.45;3.45;;;;;;;24.79;57.63;98610.09;5113001;28;19920;-81
2022/08/19 13:28:26;;;;;;;12.07;3.63;;;;;;;24.67;58.28;98613.25;5108655;28;20098;-81
2022/08/19 13:33:36;;;;;;;4.20;3.30;;;;;;;24.82;60.02;98625.38;5104165;28;20160;-81
2022/08/19 13:36:07;;;;;;;3.70;3.38;;;;;;;24.73;61.71;98619.59;5102995;28;20040;-81
2022/08/19 13:38:34;;;;;;;5.05;3.60;;;;;;;24.63;64.73;98617.75;5112834;28;20040;-81
2022/08/19 13:41:06;;;;;;;4.88;3.83;;;;;;;24.62;66.18;98615.25;5113309;28;20039;-81
2022/08/19 13:43:32;;;;;;;4.95;3.38;;;;;;;24.68;65.17;98616.88;5112371;28;20043;-81
2022/08/19 13:45:59;;;;;;;11.90;3.75;;;;;;;24.45;66.50;98605.38;5112919;28;20097;-81
2022/08/19 13:48:27;;;;;;;14.07;3.75;;;;;;;24.58;67.99;98606.66;5112939;28;20051;-81
2022/08/19 13:50:53;;;;;;;3.70;3.13;;;;;;;24.61;66.51;98608.03;5105290;28;20092;-83
2022/08/19 13:53:21;;;;;;;6.47;3.92;;;;;;;24.62;65.70;98609.72;5109998;28;20043;-81
2022/08/19 13:55:50;;;;;;;6.80;4.05;;;;;;;24.58;64.62;98608.59;5110548;28;20323;-81
2022/08/19 13:58:16;;;;;;;5.78;4.10;;;;;;;24.59;62.24;98600.00;5092380;28;20055;-81
2022/08/19 14:00:46;;;;;;;6.65;4.18;;;;;;;24.36;62.34;98607.94;5092182;28;20056;-81
2022/08/19 14:03:16;;;;;;;4.30;3.28;;;;;;;24.38;63.20;98621.53;5091679;28;20044;-81
2022/08/19 14:05:43;;;;;;;5.97;4.88;;;;;;;24.34;67.06;98614.88;5103153;28;20043;-81
2022/08/19 14:08:13;;;;;;;16.65;6.57;;;;;;;24.08;73.31;98628.13;5106634;28;20058;-80
2022/08/19 14:10:56;;;;;;;9.52;7.50;;;;;;;23.78;76.37;98607.72;5112455;28;20051;-81
2022/08/19 14:13:24;;;;;;;12.48;7.57;;;;;;;23.78;77.02;98619.63;5102039;28;20043;-81
2022/08/19 14:16:02;;;;;;;12.35;8.30;;;;;;;23.60;77.07;98631.38;5112674;28;20052;-81
2022/08/19 14:18:32;;;;;;;12.25;8.77;;;;;;;23.50;79.62;98629.47;5108068;28;20055;-80
2022/08/19 14:20:58;;;;;;;13.88;8.38;;;;;;;23.19;86.93;98615.72;5107291;27;20415;-80
2022/08/19 14:23:25;;;;;;;13.65;8.93;;;;;;;23.22;94.28;98629.00;5111434;28;20048;-80
2022/08/19 14:25:56;;;;;;;16.40;10.68;;;;;;;23.02;100.00;98623.47;5109028;28;20054;-80
2022/08/19 14:28:23;;;;;;;15.50;10.55;;;;;;;22.89;100.00;98613.81;5111911;28;20051;-79
2022/08/19 14:30:49;;;;;;;17.55;12.13;;;;;;;22.65;100.00;98625.44;5111993;28;20051;-79
2022/08/19 14:33:16;;;;;;;15.30;11.32;;;;;;;22.49;100.00;98621.00;5110994;28;20070;-79
2022/08/19 14:35:44;;;;;;;21.67;11.30;;;;;;;22.20;100.00;98607.66;5106955;28;20461;-79
2022/08/19 14:38:16;;;;;;;14.63;10.27;;;;;;;22.22;100.00;98614.59;5111754;28;20088;-78
2022/08/19 14:40:43;;;;;;;15.38;10.85;;;;;;;22.24;100.00;98614.34;5111619;28;20399;-78
2022/08/19 14:43:11;;;;;;;21.35;11.35;;;;;;;22.19;100.00;98617.06;5104924;28;20100;-78
2022/08/19 14:45:39;;;;;;;22.10;11.80;;;;;;;22.12;100.00;98611.81;5111518;28;20047;-78
2022/08/19 14:48:07;;;;;;;21.60;12.85;;;;;;;22.04;100.00;98615.97;5098751;28;20044;-78
2022/08/19 14:50:34;;;;;;;18.25;13.45;;;;;;;21.90;100.00;98612.03;5104114;28;20070;-77
2022/08/19 14:53:03;;;;;;;20.90;13.32;;;;;;;22.02;100.00;98609.84;5108349;28;20052;-78
2022/08/19 14:55:29;;;;;;;16.50;13.90;;;;;;;21.74;100.00;98613.94;5109206;28;20043;-78
2022/08/19 14:57:56;;;;;;;18.58;13.75;;;;;;;21.84;100.00;98613.94;5109282;28;20051;-78
2022/08/19 15:00:24;;;;;;;21.70;14.48;;;;;;;21.88;100.00;98623.38;5101110;28;20051;-78
2022/08/19 15:02:50;;;;;;;20.17;15.63;;;;;;;21.71;100.00;98618.09;5106279;28;20409;-78
2022/08/19 15:05:17;;;;;;;19.80;14.65;;;;;;;21.70;100.00;98615.59;5109194;28;20479;-78
2022/08/19 15:07:44;;;;;;;23.60;14.95;;;;;;;21.69;100.00;98625.81;5109584;28;20047;-78
2022/08/19 15:10:13;;;;;;;18.17;13.75;;;;;;;21.49;100.00;98640.34;5108472;28;20422;-78
2022/08/19 15:12:40;;;;;;;21.33;14.02;;;;;;;21.43;100.00;98644.19;5108130;28;20066;-77
2022/08/19 15:15:08;;;;;;;19.23;14.48;;;;;;;21.40;100.00;98644.75;5104399;28;20067;-78
2022/08/19 15:17:37;;;;;;;20.45;15.63;;;;;;;21.29;100.00;98640.28;5100075;28;20048;-78
2022/08/19 15:20:04;;;;;;;23.30;16.45;;;;;;;21.20;100.00;98632.47;5090386;28;20075;-77
2022/08/19 15:22:31;;;;;;;25.50;16.73;;;;;;;21.39;100.00;98643.91;5104189;28;20056;-78
2022/08/19 15:24:58;;;;;;;25.15;15.60;;;;;;;21.24;100.00;98631.94;5109438;28;20521;-78
2022/08/19 15:27:24;;;;;;;25.27;16.98;;;;;;;21.35;100.00;98641.97;5108361;28;20099;-78
2022/08/19 15:29:51;;;;;;;20.65;16.73;;;;;;;21.29;100.00;98640.28;5109165;28;20048;-78
2022/08/19 15:32:18;;;;;;;21.45;16.27;;;;;;;21.35;100.00;98647.50;5107269;28;20051;-78
2022/08/19 15:34:48;;;;;;;28.02;18.55;;;;;;;21.35;100.00;98653.03;5100233;28;20048;-78
2022/08/19 15:37:15;;;;;;;24.17;17.08;;;;;;;21.17;100.00;98649.59;5108532;28;20108;-78
2022/08/19 15:39:41;;;;;;;24.13;17.35;;;;;;;21.16;100.00;98652.63;5109024;28;20043;-78
2022/08/19 15:42:08;;;;;;;20.63;15.35;;;;;;;21.30;100.00;98661.25;5107531;28;20060;-78
2022/08/19 15:44:34;;;;;;;20.27;16.25;;;;;;;21.19;100.00;98644.63;5108861;28;20490;-78
2022/08/19 15:47:01;;;;;;;25.83;15.63;;;;;;;21.18;100.00;98650.41;5108243;28;20055;-78
2022/08/19 15:49:27;;;;;;;21.38;14.50;;;;;;;21.28;100.00;98657.94;5106243;28;20456;-78
2022/08/19 15:51:56;;;;;;;20.17;15.10;;;;;;;21.36;100.00;98649.97;5102818;28;20476;-78
2022/08/19 15:54:23;;;;;;;25.63;16.15;;;;;;;21.39;100.00;98654.97;5110677;28;20043;-78
2022/08/19 16:07:53;;;;;;;18.63;14.70;;;;;;;22.21;100.00;98657.22;5077669;28;20046;-78
2022/08/19 16:10:21;;;;;;;20.15;13.88;;;;;;;22.50;100.00;98651.19;5110471;28;20081;-78
2022/08/19 16:12:47;;;;;;;17.60;13.45;;;;;;;22.66;100.00;98652.06;5112104;28;20047;-78
2022/08/19 16:15:14;;;;;;;18.98;13.35;;;;;;;22.93;97.52;98659.25;5112331;28;20040;-78
2022/08/19 16:17:41;;;;;;;16.75;13.13;;;;;;;22.96;98.35;98661.47;5111712;28;20126;-78
2022/08/19 16:20:10;;;;;;;19.25;12.23;;;;;;;22.85;97.05;98663.38;5110507;28;20055;-79
2022/08/19 16:22:37;;;;;;;16.45;12.27;;;;;;;22.91;94.61;98661.44;5108443;28;21160;-79
2022/08/19 16:25:07;;;;;;;16.33;12.40;;;;;;;22.91;94.69;98662.31;5099910;28;20047;-79
2022/08/19 16:27:34;;;;;;;16.10;12.75;;;;;;;23.10;91.57;98653.44;5105453;28;20047;-80
2022/08/19 16:30:01;;;;;;;15.48;10.88;;;;;;;23.11;90.14;98658.69;5105922;28;20521;-78
2022/08/19 16:32:27;;;;;;;16.52;11.02;;;;;;;23.21;90.14;98662.56;5110251;28;20048;-79
2022/08/19 16:34:54;;;;;;;13.35;11.88;;;;;;;23.39;89.20;98663.91;5108446;28;20044;-78
2022/08/19 16:37:22;;;;;;;16.58;10.35;;;;;;;23.31;88.64;98655.03;5100275;28;20044;-78
2022/08/19 16:39:48;;;;;;;15.45;10.60;;;;;;;23.05;90.07;98650.63;5103806;28;20460;-79
2022/08/19 16:42:16;;;;;;;14.52;10.95;;;;;;;23.13;88.82;98658.41;5110756;28;20047;-79
2022/08/19 16:44:45;;;;;;;16.75;11.73;;;;;;;23.12;87.93;98665.06;5112222;27;20047;-79
2022/08/19 16:47:12;;;;;;;16.40;10.77;;;;;;;23.15;88.14;98667.28;5111154;28;20074;-79
2022/08/19 16:49:40;;;;;;;13.05;10.02;;;;;;;23.07;87.89;98660.31;5095092;28;20131;-79
2022/08/19 16:52:08;;;;;;;13.05;10.25;;;;;;;22.87;87.85;98665.88;5110280;28;20460;-79
2022/08/19 16:54:35;;;;;;;13.50;9.90;;;;;;;23.00;86.50;98676.41;5111304;28;20126;-79
2022/08/19 16:57:02;;;;;;;17.90;9.82;;;;;;;22.98;87.63;98668.38;5111785;28;20590;-79
2022/08/19 16:59:31;;;;;;;13.68;10.50;;;;;;;22.91;88.20;98669.75;5111940;28;20056;-80
2022/08/19 17:01:58;;;;;;;19.27;10.90;;;;;;;22.68;88.65;98669.22;5102420;28;20046;-79
2022/08/19 17:04:24;;;;;;;13.10;10.57;;;;;;;22.56;89.95;98675.03;5107054;28;20265;-79
2022/08/19 17:06:51;;;;;;;14.60;11.07;;;;;;;22.52;91.15;98682.25;5110365;28;20044;-80
2022/08/19 17:09:18;;;;;;;13.13;10.13;;;;;;;22.48;91.95;98675.59;5090935;28;20082;-80
2022/08/19 17:11:45;;;;;;;14.65;10.65;;;;;;;22.52;91.84;98673.94;5091297;28;20054;-79
2022/08/19 17:14:12;;;;;;;14.13;10.85;;;;;;;22.45;92.95;98676.97;5105694;28;20362;-79
2022/08/19 17:16:40;;;;;;;13.95;10.80;;;;;;;22.49;91.98;98676.41;5111086;28;20048;-79
2022/08/19 17:19:07;;;;;;;13.55;10.80;;;;;;;22.51;92.75;98688.06;5111316;28;20048;-79
2022/08/19 17:21:36;;;;;;;13.98;10.85;;;;;;;22.35;93.84;98684.41;5109881;28;20300;-79
2022/08/19 17:24:06;;;;;;;14.43;11.17;;;;;;;22.37;92.92;98682.19;5100901;28;20055;-79
2022/08/19 17:26:33;;;;;;;13.63;10.43;;;;;;;22.33;93.23;98683.88;5105358;28;20093;-79
2022/08/19 17:29:00;;;;;;;14.23;11.23;;;;;;;22.11;96.20;98687.66;5111327;27;20044;-80
2022/08/19 17:31:28;;;;;;;12.75;10.63;;;;;;;22.07;95.89;98683.75;5110847;28;20051;-79
2022/08/19 17:34:00;;;;;;;12.43;10.93;;;;;;;21.99;96.59;98687.88;5110240;28;20067;-79
2022/08/19 17:36:29;;;;;;;14.13;10.63;;;;;;;22.04;96.14;98679.63;5111185;28;20489;-79
2022/08/19 17:38:59;;;;;;;11.85;10.20;;;;;;;22.05;96.11;98689.56;5100805;28;20052;-79
2022/08/19 17:41:26;;;;;;;18.15;11.20;;;;;;;22.02;95.49;98686.50;5098184;28;20044;-79
2022/08/19 17:43:53;;;;;;;12.95;10.55;;;;;;;21.99;95.99;98684.28;5110661;28;20414;-81
2022/08/19 17:46:20;;;;;;;11.93;9.75;;;;;;;21.91;96.71;98689.25;5110167;28;20051;-79
2022/08/19 17:48:50;;;;;;;12.88;10.40;;;;;;;21.80;97.16;98682.03;5110412;28;20047;-79
2022/08/19 17:51:20;;;;;;;;;;;;;;;21.79;96.95;98701.66;5112042;28;20055;-80
2022/08/19 17:53:49;;;;;;;14.15;10.48;;;;;;;21.69;98.11;98696.91;5107427;28;20370;-80
2022/08/19 17:56:16;;;;;;;12.07;9.82;;;;;;;21.59;97.42;98697.69;5104208;27;20066;-79
2022/08/19 17:58:43;;;;;;;16.10;11.00;;;;;;;21.57;96.86;98699.88;5112265;28;20074;-80
2022/08/19 18:01:11;;;;;;;13.68;10.80;;;;;;;21.51;97.58;98706.47;5111524;28;20059;-79
2022/08/19 18:03:38;;;;;;;15.48;10.68;;;;;;;21.43;97.31;98698.69;5112011;27;20116;-79
2022/08/19 18:06:05;;;;;;;14.27;11.35;;;;;;;21.41;97.31;98698.94;5112730;28;20051;-79
2022/08/19 18:08:35;;;;;;;12.45;9.38;;;;;;;21.35;97.69;98705.53;5108863;28;20054;-79
2022/08/19 18:11:02;;;;;;;13.18;10.43;;;;;;;21.28;97.98;98711.28;5107752;28;20051;-79
2022/08/19 18:13:29;;;;;;;12.38;11.07;;;;;;;21.10;98.35;98704.25;5108666;28;20047;-79
2022/08/19 18:15:56;;;;;;;14.30;10.48;;;;;;;21.21;98.00;98706.00;5111632;28;20134;-79
2022/08/19 18:18:24;;;;;;;14.13;11.00;;;;;;;21.12;98.93;98720.56;5112350;28;20499;-79
2022/08/19 18:20:50;;;;;;;19.08;11.65;;;;;;;21.02;99.35;98718.56;5112735;28;20055;-79
2022/08/19 18:23:17;;;;;;;15.27;11.50;;;;;;;21.01;98.85;98711.38;5106706;28;20043;-79
2022/08/19 18:25:49;;;;;;;16.63;11.57;;;;;;;21.06;98.54;98721.63;5108987;28;20048;-79
2022/08/19 18:28:15;;;;;;;15.73;12.00;;;;;;;20.91;100.00;98720.44;5091626;28;20098;-79
2022/08/19 18:30:42;;;;;;;12.20;10.75;;;;;;;20.87;100.00;98719.28;5107408;28;20141;-79
2022/08/19 18:33:12;;;;;;;12.45;10.82;;;;;;;20.77;100.00;98708.97;5111277;28;20051;-80
2022/08/19 18:35:44;;;;;;;16.58;11.60;;;;;;;20.82;100.00;98714.56;5111919;28;20043;-79
2022/08/19 18:49:05;;;;;;;13.50;11.25;;;;;;;20.57;100.00;98736.38;5105513;28;20054;-79
2022/08/19 18:51:32;;;;;;;14.27;11.30;;;;;;;20.55;100.00;98733.88;5109778;27;20510;-79
2022/08/19 18:54:00;;;;;;;15.35;11.07;;;;;;;20.45;100.00;98744.81;5110954;28;20048;-79
2022/08/19 18:56:31;;;;;;;15.07;10.25;;;;;;;20.38;100.00;98745.00;5098992;28;20411;-79
2022/08/19 18:58:58;;;;;;;13.95;10.77;;;;;;;20.26;100.00;98736.03;5091274;28;20056;-79
2022/08/19 19:01:28;;;;;;;20.25;11.25;;;;;;;20.18;100.00;98740.09;5092463;28;20044;-79
2022/08/19 19:03:55;;;;;;;13.88;11.27;;;;;;;20.18;100.00;98742.03;5108860;28;20539;-79
2022/08/19 19:06:27;;;;;;;21.60;11.57;;;;;;;20.11;100.00;98747.72;5103822;28;20047;-79
2022/08/19 19:08:54;;;;;;;17.70;11.88;;;;;;;20.00;100.00;98749.53;5091039;28;20051;-79
2022/08/19 19:11:24;;;;;;;13.18;11.45;;;;;;;20.00;100.00;98757.00;5091303;28;20131;-79
2022/08/19 19:13:52;;;;;;;14.70;11.13;;;;;;;20.02;100.00;98765.84;5104607;28;20391;-79
2022/08/19 19:16:18;;;;;;;20.10;13.18;;;;;;;20.01;100.00;98759.50;5110856;28;20494;-79
2022/08/19 19:18:45;;;;;;;18.77;12.27;;;;;;;19.79;100.00;98759.47;5109551;28;20055;-79
2022/08/19 19:21:11;;;;;;;17.75;12.02;;;;;;;19.75;100.00;98748.09;5109739;28;20051;-79
2022/08/19 19:23:41;;;;;;;15.68;12.35;;;;;;;19.71;100.00;98752.44;5110344;28;20516;-79
2022/08/19 19:26:09;;;;;;;17.67;12.13;;;;;;;19.78;100.00;98764.16;5111486;28;20142;-80
2022/08/19 19:28:42;;;;;;;17.10;11.73;;;;;;;19.81;100.00;98760.03;5103483;28;20575;-79
2022/08/19 19:31:13;;;;;;;14.93;13.02;;;;;;;19.81;100.00;98768.31;5099666;28;20080;-80
2022/08/19 19:33:41;;;;;;;18.17;12.10;;;;;;;19.78;100.00;98755.03;5110597;28;20048;-80
2022/08/19 19:36:08;;;;;;;16.38;12.90;;;;;;;19.86;100.00;98765.66;5111768;28;20085;-80